createdAt,value
2018-02-04T00:00:16.179Z,7.17
2018-02-04T00:02:43.658Z,8.10
2018-02-04T00:05:11.135Z,7.53
2018-02-04T00:07:38.615Z,9.07
2018-02-04T00:10:06.846Z,8.70
2018-02-04T00:12:34.311Z,6.73
2018-02-04T00:15:01.770Z,7.50
2018-02-04T00:17:29.243Z,7.60
2018-02-04T00:19:56.705Z,6.87
2018-02-04T00:22:36.087Z,6.87
2018-02-04T00:25:03.559Z,6.17
2018-02-04T00:27:31.022Z,7.23
2018-02-04T00:29:58.476Z,7.60
2018-02-04T00:32:25.942Z,7.33
2018-02-04T00:34:53.402Z,7.13
2018-02-04T00:37:20.854Z,8.50
2018-02-04T00:39:48.330Z,8.77
2018-02-04T00:42:15.795Z,7.20
2018-02-04T00:44:43.279Z,7.40
2018-02-04T00:47:11.523Z,8.23
2018-02-04T00:49:38.995Z,10.63
2018-02-04T00:52:07.213Z,7.97
2018-02-04T00:54:34.696Z,8.37
2018-02-04T00:57:02.161Z,7.27
2018-02-04T00:59:29.634Z,10.33
2018-02-04T01:01:57.119Z,7.97
2018-02-04T01:04:24.594Z,7.87
2018-02-04T01:06:52.070Z,8.30
2018-02-04T01:09:19.600Z,9.97
2018-02-04T01:11:47.077Z,11.33
2018-02-04T01:14:14.563Z,7.67
2018-02-04T01:16:42.029Z,8.90
2018-02-04T01:19:10.294Z,7.10
2018-02-04T01:21:37.762Z,9.50
2018-02-04T01:24:05.992Z,8.10
2018-02-04T01:26:33.494Z,6.70
2018-02-04T01:29:01.720Z,7.40
2018-02-04T01:31:29.186Z,9.50
2018-02-04T01:33:56.695Z,7.03
2018-02-04T01:36:24.930Z,8.67
2018-02-04T01:38:52.399Z,7.20
2018-02-04T01:41:19.917Z,8.07
2018-02-04T01:43:47.409Z,6.77
2018-02-04T01:46:14.929Z,12.93
2018-02-04T01:48:42.961Z,9.03
2018-02-04T01:51:10.411Z,6.73
2018-02-04T01:53:37.885Z,10.70
2018-02-04T01:56:06.358Z,9.27
2018-02-04T01:58:33.797Z,6.50
2018-02-04T02:01:01.291Z,7.60
2018-02-04T02:03:29.543Z,6.37
2018-02-04T02:05:57.803Z,5.23
2018-02-04T02:08:25.345Z,8.60
2018-02-04T02:10:52.821Z,9.43
2018-02-04T02:13:20.370Z,7.23
2018-02-04T02:15:47.854Z,8.73
2018-02-04T02:18:16.170Z,6.80
2018-02-04T02:20:44.266Z,7.97
2018-02-04T02:23:12.676Z,7.93
2018-02-04T02:25:40.969Z,7.73
2018-02-04T02:28:09.250Z,5.47
2018-02-04T02:30:36.718Z,6.10
2018-02-04T02:33:04.986Z,6.13
2018-02-04T02:35:33.251Z,7.53
2018-02-04T02:38:01.510Z,8.30
2018-02-04T02:40:29.015Z,6.60
2018-02-04T02:42:56.497Z,5.40
2018-02-04T02:45:24.974Z,8.97
2018-02-04T02:47:52.747Z,6.90
2018-02-04T02:50:20.201Z,5.33
2018-02-04T02:52:47.670Z,6.47
2018-02-04T02:55:15.175Z,7.13
2018-02-04T02:57:42.689Z,6.73
2018-02-04T03:00:10.998Z,7.07
2018-02-04T03:02:38.491Z,8.23
2018-02-04T03:05:05.992Z,5.63
2018-02-04T03:07:34.223Z,5.47
2018-02-04T03:10:01.738Z,7.33
2018-02-04T03:12:30.691Z,6.60
2018-02-04T03:14:58.302Z,8.17
2018-02-04T03:17:26.550Z,7.10
2018-02-04T03:19:54.092Z,6.47
2018-02-04T03:22:21.609Z,6.60
2018-02-04T03:24:49.125Z,5.90
2018-02-04T03:27:17.422Z,6.43
2018-02-04T03:29:45.691Z,7.03
2018-02-04T03:32:13.189Z,6.60
2018-02-04T03:34:40.646Z,7.33
2018-02-04T03:37:08.142Z,6.43
2018-02-04T03:39:35.637Z,6.00
2018-02-04T03:42:03.452Z,6.80
2018-02-04T03:44:31.003Z,7.60
2018-02-04T03:46:58.498Z,5.17
2018-02-04T03:49:26.725Z,4.47
2018-02-04T03:51:54.234Z,5.70
2018-02-04T03:54:22.460Z,6.87
2018-02-04T03:56:49.983Z,5.30
2018-02-04T03:59:18.257Z,7.67
2018-02-04T04:01:45.733Z,5.90
2018-02-04T04:04:13.225Z,6.77
2018-02-04T04:06:40.741Z,7.87
2018-02-04T04:09:08.228Z,10.57
2018-02-04T04:11:35.697Z,7.97
2018-02-04T04:14:04.344Z,5.83
2018-02-04T04:16:31.827Z,5.63
2018-02-04T04:18:59.298Z,6.23
2018-02-04T04:21:26.774Z,9.10
2018-02-04T04:23:54.301Z,7.33
2018-02-04T04:26:22.429Z,7.83
2018-02-04T04:28:49.925Z,5.67
2018-02-04T04:31:17.452Z,6.10
2018-02-04T04:33:45.882Z,6.40
2018-02-04T04:36:13.349Z,6.97
2018-02-04T04:38:40.858Z,7.30
2018-02-04T04:41:08.373Z,7.23
2018-02-04T04:43:35.906Z,7.93
2018-02-04T04:46:03.426Z,6.93
2018-02-04T04:48:30.904Z,7.60
2018-02-04T04:50:58.415Z,6.23
2018-02-04T04:53:25.902Z,5.23
2018-02-04T04:55:53.438Z,10.17
2018-02-04T04:58:21.746Z,7.10
2018-02-04T05:00:49.206Z,8.10
2018-02-04T05:03:16.674Z,8.50
2018-02-04T05:05:44.175Z,5.23
2018-02-04T05:08:11.718Z,10.53
2018-02-04T05:10:39.210Z,7.00
2018-02-04T05:13:06.694Z,7.20
2018-02-04T05:15:34.189Z,5.60
2018-02-04T05:18:01.684Z,9.67
2018-02-04T05:20:29.201Z,8.93
2018-02-04T05:22:56.682Z,8.40
2018-02-04T05:25:24.793Z,5.13
2018-02-04T05:27:53.022Z,12.77
2018-02-04T05:30:20.546Z,5.23
2018-02-04T05:32:48.087Z,6.67
2018-02-04T05:35:15.579Z,6.93
2018-02-04T05:37:43.073Z,6.37
2018-02-04T05:40:10.602Z,5.50
2018-02-04T05:42:38.131Z,5.87
2018-02-04T05:45:05.630Z,5.93
2018-02-04T05:47:34.058Z,3.63
2018-02-04T05:50:02.514Z,3.03
2018-02-04T05:52:30.324Z,4.33
2018-02-04T05:54:57.795Z,3.80
2018-02-04T05:57:25.330Z,5.90
2018-02-04T05:59:52.777Z,2.40
2018-02-04T06:02:20.291Z,3.93
2018-02-04T06:04:48.510Z,13.23
2018-02-04T06:07:16.090Z,4.13
2018-02-04T06:09:45.066Z,3.33
2018-02-04T06:12:12.542Z,2.63
2018-02-04T06:14:40.038Z,3.57
2018-02-04T06:17:07.529Z,2.50
2018-02-04T06:19:34.992Z,2.13
2018-02-04T06:22:03.278Z,3.80
2018-02-04T06:24:30.742Z,7.97
2018-02-04T06:26:58.215Z,3.93
2018-02-04T06:29:26.434Z,3.80
2018-02-04T06:31:53.921Z,2.97
2018-02-04T06:34:21.386Z,4.70
2018-02-04T06:36:48.854Z,4.47
2018-02-04T06:39:17.266Z,4.50
2018-02-04T06:41:44.718Z,4.57
2018-02-04T06:44:14.562Z,6.23
2018-02-04T06:46:42.087Z,5.27
2018-02-04T06:49:09.552Z,2.63
2018-02-04T06:51:37.029Z,3.60
2018-02-04T06:54:05.433Z,4.13
2018-02-04T06:56:33.046Z,3.17
2018-02-04T06:59:01.115Z,3.43
2018-02-04T07:01:29.176Z,3.13
2018-02-04T07:03:57.794Z,7.73
2018-02-04T07:06:25.519Z,4.20
2018-02-04T07:08:53.800Z,2.93
2018-02-04T07:11:21.606Z,4.17
2018-02-04T07:13:49.062Z,6.93
2018-02-04T07:16:16.883Z,5.07
2018-02-04T07:18:45.106Z,2.80
2018-02-04T07:21:12.558Z,6.20
2018-02-04T07:23:40.111Z,12.63
2018-02-04T07:26:07.578Z,6.40
2018-02-04T07:28:35.035Z,4.50
2018-02-04T07:31:02.523Z,4.37
2018-02-04T07:33:30.000Z,3.90
2018-02-04T07:35:58.187Z,4.53
2018-02-04T07:38:25.697Z,8.40
2018-02-04T07:40:53.178Z,7.13
2018-02-04T07:43:20.689Z,7.60
2018-02-04T07:45:48.231Z,5.20
2018-02-04T07:48:15.734Z,7.77
2018-02-04T07:50:43.393Z,11.97
2018-02-04T07:53:10.967Z,11.10
2018-02-04T07:55:38.654Z,9.40
2018-02-04T07:58:06.156Z,6.77
2018-02-04T08:00:33.648Z,12.10
2018-02-04T08:03:01.929Z,7.20
2018-02-04T08:05:30.508Z,8.00
2018-02-04T08:07:57.990Z,8.43
2018-02-04T08:10:26.298Z,6.00
2018-02-04T08:12:54.796Z,6.23
2018-02-04T08:15:22.271Z,10.10
2018-02-04T08:17:49.744Z,8.20
2018-02-04T08:20:17.215Z,7.83
2018-02-04T08:22:45.452Z,4.30
2018-02-04T08:25:12.922Z,7.40
2018-02-04T08:27:41.198Z,7.80
2018-02-04T08:30:09.446Z,5.30
2018-02-04T08:32:36.946Z,7.80
2018-02-04T08:35:04.438Z,5.10
2018-02-04T08:37:31.917Z,7.87
2018-02-04T08:39:59.405Z,5.77
2018-02-04T08:42:26.878Z,5.17
2018-02-04T08:44:54.341Z,5.30
2018-02-04T08:47:21.816Z,6.07
2018-02-04T08:49:49.278Z,10.63
2018-02-04T08:52:16.782Z,7.50
2018-02-04T08:54:44.244Z,6.90
2018-02-04T08:57:11.727Z,6.97
2018-02-04T08:59:39.201Z,6.20
2018-02-04T09:02:06.671Z,5.13
2018-02-04T09:04:34.127Z,7.80
2018-02-04T09:07:01.598Z,5.80
2018-02-04T09:09:29.078Z,7.40
2018-02-04T09:11:56.530Z,7.20
2018-02-04T09:14:23.986Z,8.60
2018-02-04T09:16:51.874Z,6.97
2018-02-04T09:19:20.142Z,7.90
2018-02-04T09:21:47.595Z,9.63
2018-02-04T09:24:15.130Z,6.57
2018-02-04T09:26:42.596Z,7.30
2018-02-04T09:29:10.066Z,7.40
2018-02-04T09:31:37.534Z,7.40
2018-02-04T09:34:05.782Z,6.40
2018-02-04T09:36:33.250Z,10.20
2018-02-04T09:39:00.718Z,11.30
2018-02-04T09:41:28.942Z,9.10
2018-02-04T09:43:56.398Z,4.17
2018-02-04T09:46:23.890Z,9.60
2018-02-04T09:48:51.341Z,6.70
2018-02-04T09:51:18.813Z,13.70
2018-02-04T09:53:48.346Z,6.80
2018-02-04T09:56:15.825Z,7.10
2018-02-04T09:58:43.338Z,6.43
2018-02-04T10:01:10.765Z,4.33
2018-02-04T10:03:38.220Z,6.90
2018-02-04T10:06:05.772Z,4.73
2018-02-04T10:08:33.234Z,8.30
2018-02-04T10:11:00.711Z,13.00
2018-02-04T10:13:29.788Z,7.73
2018-02-04T10:15:57.289Z,5.20
2018-02-04T10:18:25.538Z,4.37
2018-02-04T10:20:53.018Z,3.83
2018-02-04T10:23:21.282Z,7.83
2018-02-04T10:25:49.514Z,4.73
2018-02-04T10:28:16.987Z,3.40
2018-02-04T10:30:44.511Z,2.87
2018-02-04T10:33:11.921Z,3.57
2018-02-04T10:35:39.414Z,7.40
2018-02-04T10:38:06.882Z,2.70
2018-02-04T10:40:34.342Z,3.20
2018-02-04T10:43:01.858Z,4.53
2018-02-04T10:45:30.122Z,4.23
2018-02-04T10:47:58.346Z,2.23
2018-02-04T10:50:25.835Z,4.13
2018-02-04T10:52:53.301Z,3.43
2018-02-04T10:55:20.758Z,3.83
2018-02-04T10:57:48.282Z,7.10
2018-02-04T11:00:15.751Z,4.43
2018-02-04T11:02:44.034Z,7.17
2018-02-04T11:05:13.050Z,6.87
2018-02-04T11:07:40.514Z,11.10
2018-02-04T11:10:08.758Z,3.33
2018-02-04T11:12:36.213Z,3.43
2018-02-04T11:15:03.691Z,4.00
2018-02-04T11:17:31.146Z,3.53
2018-02-04T11:19:58.615Z,3.53
2018-02-04T11:22:26.078Z,5.77
2018-02-04T11:24:54.290Z,8.90
2018-02-04T11:27:21.774Z,4.30
2018-02-04T11:29:49.234Z,3.33
2018-02-04T11:32:23.217Z,2.50
2018-02-04T11:34:50.677Z,6.03
2018-02-04T11:37:18.126Z,2.90
2018-02-04T11:39:46.379Z,2.33
2018-02-04T11:42:13.849Z,2.43
2018-02-04T11:44:41.318Z,1.83
2018-02-04T11:47:08.820Z,3.00
2018-02-04T11:49:36.282Z,4.80
2018-02-04T11:52:03.744Z,3.03
2018-02-04T11:54:31.198Z,4.80
2018-02-04T11:56:59.430Z,3.70
2018-02-04T11:59:26.973Z,2.67
2018-02-04T12:01:55.170Z,3.70
2018-02-04T12:04:22.670Z,3.90
2018-02-04T12:06:52.550Z,8.60
2018-02-04T12:09:20.018Z,3.23
2018-02-04T12:11:47.484Z,5.80
2018-02-04T12:14:14.951Z,3.43
2018-02-04T12:16:42.398Z,8.33
2018-02-04T12:19:09.885Z,6.43
2018-02-04T12:21:37.334Z,6.67
2018-02-04T12:24:06.212Z,9.90
2018-02-04T12:26:33.687Z,4.70
2018-02-04T12:29:01.158Z,7.17
2018-02-04T12:31:28.604Z,5.97
2018-02-04T12:33:56.082Z,4.47
2018-02-04T12:36:23.677Z,5.23
2018-02-04T12:38:51.741Z,8.57
2018-02-04T12:41:19.227Z,4.10
2018-02-04T12:43:47.164Z,2.83
2018-02-04T12:46:14.634Z,7.47
2018-02-04T12:48:42.100Z,5.83
2018-02-04T12:51:09.626Z,4.63
2018-02-04T12:53:37.084Z,7.50
2018-02-04T12:56:04.534Z,4.90
2018-02-04T12:58:32.674Z,2.60
2018-02-04T13:01:00.197Z,3.63
2018-02-04T13:03:28.359Z,4.30
2018-02-04T13:05:55.857Z,4.13
2018-02-04T13:08:23.323Z,3.70
2018-02-04T13:10:50.798Z,3.20
2018-02-04T13:13:18.310Z,6.37
2018-02-04T13:15:46.543Z,9.50
2018-02-04T13:18:14.018Z,2.77
2018-02-04T13:20:41.494Z,2.40
2018-02-04T13:23:09.564Z,3.10
2018-02-04T13:25:37.035Z,2.50
2018-02-04T13:28:05.254Z,4.00
2018-02-04T13:30:32.727Z,6.00
2018-02-04T13:33:00.195Z,3.40
2018-02-04T13:35:28.495Z,3.07
2018-02-04T13:37:56.778Z,3.43
2018-02-04T13:40:25.058Z,3.33
2018-02-04T13:42:53.541Z,4.13
2018-02-04T13:45:21.020Z,3.73
2018-02-04T13:47:48.594Z,5.20
2018-02-04T13:50:16.062Z,6.13
2018-02-04T13:52:43.520Z,7.17
2018-02-04T13:55:11.010Z,6.90
2018-02-04T13:57:39.234Z,4.60
2018-02-04T14:00:06.742Z,5.57
2018-02-04T14:02:34.586Z,5.80
2018-02-04T14:05:02.054Z,8.07
2018-02-04T14:07:29.514Z,8.60
2018-02-04T14:09:56.986Z,7.70
2018-02-04T14:12:25.197Z,10.40
2018-02-04T14:14:53.279Z,11.27
2018-02-04T14:17:20.792Z,3.87
2018-02-04T14:19:49.054Z,5.13
2018-02-04T14:22:17.275Z,3.90
2018-02-04T14:24:44.748Z,6.23
2018-02-04T14:27:12.219Z,6.60
2018-02-04T14:29:39.677Z,4.20
2018-02-04T14:32:07.147Z,7.33
2018-02-04T14:34:34.600Z,5.03
2018-02-04T14:37:02.063Z,5.47
2018-02-04T14:39:29.669Z,6.97
2018-02-04T14:41:57.114Z,4.53
2018-02-04T14:44:24.583Z,4.10
2018-02-04T14:46:52.204Z,3.13
2018-02-04T14:49:19.668Z,3.60
2018-02-04T14:51:47.902Z,4.27
2018-02-04T14:54:16.115Z,3.70
2018-02-04T14:56:44.339Z,4.57
2018-02-04T14:59:11.832Z,4.20
2018-02-04T15:01:39.327Z,3.70
2018-02-04T15:04:06.787Z,6.90
2018-02-04T15:06:35.027Z,11.30
2018-02-04T15:09:02.488Z,6.70
2018-02-04T15:11:30.772Z,5.67
2018-02-04T15:13:58.195Z,7.03
2018-02-04T15:16:25.735Z,3.30
2018-02-04T15:18:53.191Z,3.80
2018-02-04T15:21:20.670Z,7.00
2018-02-04T15:23:49.750Z,5.70
2018-02-04T15:26:17.227Z,6.90
2018-02-04T15:28:44.689Z,5.50
2018-02-04T15:31:12.167Z,5.07
2018-02-04T15:33:39.658Z,6.43
2018-02-04T15:36:07.170Z,5.30
2018-02-04T15:38:34.668Z,4.60
2018-02-04T15:41:02.156Z,3.87
2018-02-04T15:43:30.442Z,6.13
2018-02-04T15:45:57.909Z,6.20
2018-02-04T15:48:25.382Z,4.20
2018-02-04T15:50:54.131Z,4.40
2018-02-04T15:53:21.606Z,4.90
2018-02-04T15:55:49.078Z,6.93
2018-02-04T15:58:17.318Z,5.63
2018-02-04T16:00:44.792Z,6.20
2018-02-04T16:03:12.254Z,8.63
2018-02-04T16:05:39.703Z,8.00
2018-02-04T16:08:07.189Z,4.67
2018-02-04T16:10:35.435Z,9.80
2018-02-04T16:13:02.883Z,6.00
2018-02-04T16:15:30.376Z,7.23
2018-02-04T16:17:59.411Z,14.60
2018-02-04T16:20:26.918Z,7.67
2018-02-04T16:22:54.409Z,7.37
2018-02-04T16:25:21.870Z,11.50
2018-02-04T16:27:49.326Z,9.10
2018-02-04T16:30:16.858Z,6.20
2018-02-04T16:32:45.078Z,8.73
2018-02-04T16:35:12.534Z,8.57
2018-02-04T16:37:40.016Z,6.63
2018-02-04T16:40:07.474Z,8.33
2018-02-04T16:42:34.953Z,10.80
2018-02-04T16:45:03.193Z,6.33
2018-02-04T16:47:31.609Z,10.47
2018-02-04T16:50:00.838Z,10.77
2018-02-04T16:52:28.314Z,8.60
2018-02-04T16:54:55.778Z,9.07
2018-02-04T16:57:23.262Z,14.80
2018-02-04T16:59:50.717Z,12.90
2018-02-04T17:02:18.188Z,9.77
2018-02-04T17:04:46.428Z,14.20
2018-02-04T17:07:14.910Z,15.33
2018-02-04T17:09:42.390Z,11.47
2018-02-04T17:12:10.689Z,16.07
2018-02-04T17:14:38.146Z,9.60
2018-02-04T17:17:05.626Z,11.53
2018-02-04T17:19:33.107Z,17.23
2018-02-04T17:22:00.569Z,20.73
2018-02-04T17:24:28.047Z,13.77
2018-02-04T17:26:55.506Z,13.67
2018-02-04T17:29:22.976Z,17.77
2018-02-04T17:31:51.225Z,15.40
2018-02-04T17:34:18.687Z,18.70
2018-02-04T17:36:46.167Z,14.03
2018-02-04T17:39:14.399Z,13.27
2018-02-04T17:41:41.867Z,15.07
2018-02-04T17:44:09.355Z,9.50
2018-02-04T17:46:37.617Z,11.77
2018-02-04T17:49:05.855Z,22.67
2018-02-04T17:51:33.318Z,10.73
2018-02-04T17:54:01.550Z,14.10
2018-02-04T17:56:29.238Z,15.13
2018-02-04T17:58:56.707Z,12.03
2018-02-04T18:01:24.175Z,11.53
2018-02-04T18:03:52.323Z,17.27
2018-02-04T18:06:19.791Z,11.27
2018-02-04T18:08:47.243Z,12.17
2018-02-04T18:11:14.714Z,18.97
2018-02-04T18:13:42.169Z,12.20
2018-02-04T18:16:09.630Z,12.20
2018-02-04T18:18:37.114Z,16.33
2018-02-04T18:21:04.624Z,9.60
2018-02-04T18:23:32.094Z,15.40
2018-02-04T18:25:59.585Z,15.27
2018-02-04T18:28:27.042Z,14.47
2018-02-04T18:30:54.497Z,17.47
2018-02-04T18:33:21.981Z,15.70
2018-02-04T18:35:49.442Z,15.73
2018-02-04T18:38:16.903Z,17.40
2018-02-04T18:40:44.457Z,17.67
2018-02-04T18:43:11.915Z,11.20
2018-02-04T18:45:39.377Z,12.20
2018-02-04T18:48:07.757Z,12.33
2018-02-04T18:50:35.223Z,18.13
2018-02-04T18:53:02.680Z,15.60
2018-02-04T18:55:31.619Z,18.20
2018-02-04T18:57:59.079Z,13.77
2018-02-04T19:00:26.557Z,17.07
2018-02-04T19:02:54.818Z,14.00
2018-02-04T19:05:23.046Z,12.10
2018-02-04T19:07:50.510Z,11.00
2018-02-04T19:10:18.026Z,13.20
2018-02-04T19:12:46.260Z,14.97
2018-02-04T19:15:13.722Z,16.60
2018-02-04T19:17:41.211Z,16.53
2018-02-04T19:20:09.446Z,12.70
2018-02-04T19:22:36.955Z,15.73
2018-02-04T19:25:05.346Z,15.57
2018-02-04T19:27:32.831Z,12.07
2018-02-04T19:30:00.342Z,11.30
2018-02-04T19:32:28.623Z,10.73
2018-02-04T19:34:56.142Z,10.47
2018-02-04T19:37:24.442Z,15.93
2018-02-04T19:39:52.698Z,15.10
2018-02-04T19:42:20.173Z,12.80
2018-02-04T19:44:48.434Z,17.73
2018-02-04T19:47:15.941Z,13.20
2018-02-04T19:49:43.402Z,11.67
2018-02-04T19:52:10.910Z,14.37
2018-02-04T19:54:39.179Z,13.23
2018-02-04T19:57:06.659Z,13.83
2018-02-04T19:59:34.921Z,16.70
2018-02-04T20:02:03.174Z,13.20
2018-02-04T20:04:30.651Z,14.07
2018-02-04T20:06:58.229Z,11.33
2018-02-04T20:09:25.812Z,10.10
2018-02-04T20:11:53.315Z,9.80
2018-02-04T20:14:21.702Z,12.60
2018-02-04T20:16:49.266Z,12.83
2018-02-04T20:19:17.510Z,15.33
2018-02-04T20:21:45.003Z,15.40
2018-02-04T20:24:13.315Z,10.40
2018-02-04T20:26:40.785Z,16.37
2018-02-04T20:29:09.116Z,15.07
2018-02-04T20:31:37.370Z,14.30
2018-02-04T20:34:17.382Z,17.57
2018-02-04T20:36:44.861Z,11.73
2018-02-04T20:39:12.370Z,14.60
2018-02-04T20:41:39.874Z,15.80
2018-02-04T20:44:07.393Z,13.20
2018-02-04T20:46:35.717Z,14.23
2018-02-04T20:49:03.212Z,15.57
2018-02-04T20:51:31.458Z,12.80
2018-02-04T20:54:00.473Z,19.27
2018-02-04T20:56:28.888Z,16.83
2018-02-04T20:58:56.416Z,18.47
2018-02-04T21:01:24.666Z,15.17
2018-02-04T21:03:52.157Z,12.03
2018-02-04T21:06:19.678Z,11.30
2018-02-04T21:08:47.189Z,18.57
2018-02-04T21:11:14.730Z,14.30
2018-02-04T21:13:43.703Z,15.93
2018-02-04T21:16:11.968Z,12.47
2018-02-04T21:18:41.465Z,19.97
2018-02-04T21:21:08.983Z,13.70
2018-02-04T21:23:36.506Z,15.90
2018-02-04T21:26:04.136Z,17.30
2018-02-04T21:28:31.681Z,15.63
2018-02-04T21:30:59.157Z,14.93
2018-02-04T21:33:28.182Z,22.50
2018-02-04T21:35:57.699Z,38.00
2018-02-04T21:38:25.476Z,28.83
2018-02-04T21:40:54.622Z,15.70
2018-02-04T21:43:23.954Z,16.53
2018-02-04T21:45:53.313Z,16.17
2018-02-04T21:48:21.310Z,16.23
2018-02-04T21:50:51.753Z,14.73
2018-02-04T21:53:21.248Z,13.73
2018-02-04T21:55:50.320Z,13.80
2018-02-04T21:58:18.048Z,16.73
2018-02-04T22:00:45.653Z,14.90
2018-02-04T22:03:13.923Z,14.03
2018-02-04T22:05:41.419Z,10.77
2018-02-04T22:08:08.915Z,14.90
2018-02-04T22:10:36.407Z,16.57
2018-02-04T22:13:04.663Z,17.63
2018-02-04T22:15:32.129Z,13.57
2018-02-04T22:17:59.699Z,14.33
2018-02-04T22:20:27.919Z,16.03
2018-02-04T22:22:55.414Z,15.53
2018-02-04T22:25:23.342Z,13.77
2018-02-04T22:27:50.881Z,15.57
2018-02-04T22:30:18.447Z,15.80
2018-02-04T22:32:45.966Z,17.67
2018-02-04T22:35:13.448Z,16.87
2018-02-04T22:37:40.955Z,16.37
2018-02-04T22:40:08.432Z,16.63
2018-02-04T22:42:37.590Z,12.07
2018-02-04T22:45:05.104Z,14.20
2018-02-04T22:47:33.354Z,12.63
2018-02-04T22:50:00.852Z,18.87
2018-02-04T22:52:28.363Z,20.50
2018-02-04T22:54:55.859Z,14.50
2018-02-04T22:57:24.128Z,15.53
2018-02-04T22:59:53.171Z,16.63
2018-02-04T23:02:20.678Z,14.53
2018-02-04T23:04:48.958Z,15.87
2018-02-04T23:07:17.209Z,15.63
2018-02-04T23:09:44.807Z,13.90
2018-02-04T23:12:18.967Z,11.80
2018-02-04T23:14:46.712Z,18.57
2018-02-04T23:17:15.241Z,14.90
2018-02-04T23:19:43.520Z,21.27
2018-02-04T23:22:11.070Z,17.23
2018-02-04T23:24:38.563Z,13.10
2018-02-04T23:27:06.027Z,12.83
2018-02-04T23:29:33.536Z,17.70
2018-02-04T23:32:02.270Z,14.60
2018-02-04T23:34:29.790Z,12.37
2018-02-04T23:36:58.047Z,10.87
2018-02-04T23:39:25.534Z,12.43
2018-02-04T23:41:53.831Z,22.00
2018-02-04T23:44:21.394Z,16.07
2018-02-04T23:46:48.866Z,18.93
2018-02-04T23:49:17.157Z,16.90
2018-02-04T23:51:44.638Z,16.17
2018-02-04T23:54:12.118Z,18.87
2018-02-04T23:56:39.664Z,17.40
2018-02-04T23:59:07.942Z,14.47
